Destin, Florida
Current Conditions -  °F | °C
As of 6:53 PM on Tuesday 25 Nov 2014 (Local Time) from KDTS Reporting Station
Light Rain Light Rain  
Wind Chill: 52°   Ceiling: 9000
Heat Index: 52°   Visibility: 10mi
Dew Point: 48°   Wind: 6mph
Humidity: 86%   Direction: 360°N
Pressure: 30.11"   Gusts: NA
Location:  30.39°N, 86.49°W
Report Text: KDTS 260053Z AUTO 36005KT 10SM -RA BKN090 BKN110 11/09 A3011 RMK AO2 SLP194 P0003 T01110089 TSNO
Loading
Personal Weather Stations






























Interactive Weather Map New forecast layout! Learn more

10-Day Weather Forecast

Advertisements
Track Severe Weather on mobile